createdAt,value
2022-09-23T00:01:14.152Z,100482.14
2022-09-23T00:05:17.575Z,100479.14
2022-09-23T00:09:24.070Z,100481.70
2022-09-23T00:13:27.386Z,100480.36
2022-09-23T00:17:32.205Z,100477.96
2022-09-23T00:21:37.383Z,100480.31
2022-09-23T00:25:39.340Z,100478.73
2022-09-23T00:29:41.712Z,100477.08
2022-09-23T00:33:45.956Z,100478.23
2022-09-23T00:37:48.780Z,100478.83
2022-09-23T00:41:50.774Z,100472.77
2022-09-23T00:45:56.900Z,100472.96
2022-09-23T00:50:05.037Z,100467.94
2022-09-23T00:54:11.025Z,100471.95
2022-09-23T00:58:21.249Z,100478.10
2022-09-23T01:02:25.406Z,100481.42
2022-09-23T01:06:28.850Z,100480.56
2022-09-23T01:11:11.203Z,100473.43
2022-09-23T01:15:27.264Z,100475.10
2022-09-23T01:19:47.349Z,100474.98
2022-09-23T01:24:02.028Z,100472.38
2022-09-23T01:28:35.684Z,100471.25
2022-09-23T01:32:59.235Z,100473.91
2022-09-23T01:37:29.109Z,100478.59
2022-09-23T01:41:58.234Z,100477.33
2022-09-23T01:46:06.525Z,100476.73
2022-09-23T01:50:34.953Z,100474.17
2022-09-23T01:54:42.123Z,100470.68
2022-09-23T01:58:53.476Z,100467.01
2022-09-23T02:03:07.057Z,100468.44
2022-09-23T02:07:19.913Z,100463.66
2022-09-23T02:11:23.108Z,100464.27
2022-09-23T02:15:33.829Z,100462.75
2022-09-23T02:19:55.331Z,100462.63
2022-09-23T02:24:08.905Z,100460.81
2022-09-23T02:28:17.299Z,100461.31
2022-09-23T02:32:21.878Z,100457.79
2022-09-23T02:37:02.660Z,100458.70
2022-09-23T02:41:28.846Z,100461.80
2022-09-23T02:45:30.953Z,100460.99
2022-09-23T02:49:34.850Z,100458.84
2022-09-23T02:53:37.814Z,100456.30
2022-09-23T02:57:39.800Z,100461.33
2022-09-23T03:02:14.568Z,100456.13
2022-09-23T03:06:38.422Z,100455.68
2022-09-23T03:10:53.313Z,100447.79
2022-09-23T03:15:09.733Z,100444.53
2022-09-23T03:19:27.795Z,100449.80
2022-09-23T03:23:37.997Z,100448.77
2022-09-23T03:27:42.050Z,100452.41
2022-09-23T03:31:44.769Z,100453.38
2022-09-23T03:36:16.010Z,100455.55
2022-09-23T03:40:23.478Z,100453.43
2022-09-23T03:44:28.549Z,100454.29
2022-09-23T03:48:30.527Z,100454.85
2022-09-23T03:52:32.544Z,100461.57
2022-09-23T03:56:34.595Z,100467.50
2022-09-23T04:00:36.694Z,100466.08
2022-09-23T04:04:40.702Z,100471.90
2022-09-23T04:08:42.927Z,100467.27
2022-09-23T04:12:45.392Z,100470.20
2022-09-23T04:16:48.887Z,100466.14
2022-09-23T04:20:50.899Z,100462.68
2022-09-23T04:24:52.859Z,100463.60
2022-09-23T04:28:55.107Z,100461.07
2022-09-23T04:32:57.058Z,100459.20
2022-09-23T04:36:59.042Z,100460.66
2022-09-23T04:41:02.462Z,100461.31
2022-09-23T04:45:05.146Z,100463.48
2022-09-23T04:49:07.967Z,100461.77
2022-09-23T04:53:10.118Z,100457.00
2022-09-23T04:57:12.188Z,100453.50
2022-09-23T05:01:18.847Z,100454.14
2022-09-23T05:05:23.320Z,100455.40
2022-09-23T05:09:25.689Z,100457.73
2022-09-23T05:13:28.112Z,100461.79
2022-09-23T05:17:30.880Z,100460.56
2022-09-23T05:21:33.155Z,100462.59
2022-09-23T05:25:38.343Z,100469.43
2022-09-23T05:29:40.746Z,100471.39
2022-09-23T05:33:54.709Z,100472.44
2022-09-23T05:37:57.340Z,100474.15
2022-09-23T05:42:00.044Z,100474.63
2022-09-23T05:46:17.423Z,100477.19
2022-09-23T05:50:19.981Z,100475.98
2022-09-23T05:54:22.095Z,100478.67
2022-09-23T05:58:24.916Z,100478.41
2022-09-23T06:02:26.968Z,100482.45
2022-09-23T06:06:41.045Z,100486.09
2022-09-23T06:10:54.451Z,100487.85
2022-09-23T06:15:00.649Z,100481.09
2022-09-23T06:19:07.119Z,100475.14
2022-09-23T06:23:11.087Z,100480.23
2022-09-23T06:27:25.097Z,100480.96
2022-09-23T06:31:27.278Z,100479.47
2022-09-23T06:35:32.140Z,100478.23
2022-09-23T06:39:34.921Z,100474.44
2022-09-23T06:43:38.539Z,100479.67
2022-09-23T06:47:42.078Z,100478.86
2022-09-23T06:51:44.205Z,100480.80
2022-09-23T06:55:46.271Z,100482.15
2022-09-23T06:59:48.581Z,100483.88
2022-09-23T07:03:50.590Z,100493.30
2022-09-23T07:07:53.049Z,100494.98
2022-09-23T07:11:55.016Z,100498.92
2022-09-23T07:15:58.624Z,100499.74
2022-09-23T07:20:01.722Z,100493.63
2022-09-23T07:24:04.617Z,100492.11
2022-09-23T07:28:06.702Z,100486.94
2022-09-23T07:32:14.021Z,100488.20
2022-09-23T07:36:18.501Z,100492.52
2022-09-23T07:40:20.571Z,100488.80
2022-09-23T07:44:22.663Z,100492.89
2022-09-23T07:48:25.058Z,100492.91
2022-09-23T07:52:27.125Z,100495.43
2022-09-23T07:56:33.102Z,100497.50
2022-09-23T08:00:36.628Z,100497.25
2022-09-23T08:04:39.778Z,100494.38
2022-09-23T08:08:44.840Z,100491.65
2022-09-23T08:12:47.587Z,100495.98
2022-09-23T08:16:50.421Z,100498.89
2022-09-23T08:20:52.719Z,100495.78
2022-09-23T08:24:58.106Z,100489.66
2022-09-23T08:29:03.877Z,100487.77
2022-09-23T08:33:08.116Z,100481.73
2022-09-23T08:37:12.549Z,100477.44
2022-09-23T08:42:02.737Z,100475.66
2022-09-23T08:46:13.987Z,100473.71
2022-09-23T08:50:26.594Z,100470.75
2022-09-23T08:54:30.814Z,100470.48
2022-09-23T08:58:54.873Z,100467.77
2022-09-23T09:02:57.469Z,100466.44
2022-09-23T09:11:45.439Z,100454.92
2022-09-23T09:16:55.554Z,100453.11
2022-09-23T09:21:09.550Z,100450.23
2022-09-23T09:25:34.340Z,100447.23
2022-09-23T09:29:56.845Z,100442.16
2022-09-23T09:34:26.099Z,100438.29
2022-09-23T09:38:28.547Z,100436.59
2022-09-23T09:42:40.753Z,100435.01
2022-09-23T09:47:11.256Z,100437.55
2022-09-23T09:51:24.701Z,100437.54
2022-09-23T09:55:28.545Z,100432.44
2022-09-23T09:59:32.106Z,100430.83
2022-09-23T10:03:41.035Z,100427.15
2022-09-23T10:07:43.061Z,100425.44
2022-09-23T10:12:15.189Z,100422.03
2022-09-23T10:16:17.193Z,100409.45
2022-09-23T10:20:20.317Z,100412.39
2022-09-23T10:24:35.859Z,100410.27
2022-09-23T10:28:37.734Z,100413.40
2022-09-23T10:32:44.514Z,100412.48
2022-09-23T10:37:05.559Z,100410.13
2022-09-23T10:41:47.287Z,100401.27
2022-09-23T10:46:07.891Z,100400.19
2022-09-23T10:50:42.716Z,100398.58
2022-09-23T10:54:50.671Z,100391.31
2022-09-23T10:59:26.826Z,100392.31
2022-09-23T11:03:47.009Z,100389.30
2022-09-23T11:07:59.613Z,100391.67
2022-09-23T11:12:14.033Z,100391.51
2022-09-23T11:16:23.235Z,100386.45
2022-09-23T11:20:44.168Z,100383.30
2022-09-23T11:24:52.306Z,100379.63
2022-09-23T11:29:16.373Z,100371.13
2022-09-23T11:33:38.734Z,100368.23
2022-09-23T11:37:45.973Z,100366.23
2022-09-23T11:41:52.124Z,100360.71
2022-09-23T11:46:09.876Z,100362.73
2022-09-23T11:50:29.423Z,100357.89
2022-09-23T11:54:48.424Z,100355.71
2022-09-23T11:59:39.705Z,100353.71
2022-09-23T12:03:59.169Z,100346.16
2022-09-23T12:08:15.859Z,100337.39
2022-09-23T12:12:53.288Z,100335.85
2022-09-23T12:17:20.848Z,100329.25
2022-09-23T12:21:51.571Z,100328.73
2022-09-23T12:26:06.709Z,100322.85
2022-09-23T12:30:21.774Z,100315.02
2022-09-23T12:34:36.454Z,100317.77
2022-09-23T12:38:48.225Z,100309.98
2022-09-23T12:42:51.304Z,100304.21
2022-09-23T12:47:20.893Z,100308.02
2022-09-23T12:51:34.709Z,100309.30
2022-09-23T12:55:41.110Z,100304.86
2022-09-23T13:00:16.383Z,100305.15
2022-09-23T13:05:13.384Z,100292.45
2022-09-23T13:09:21.480Z,100287.23
2022-09-23T13:13:31.328Z,100291.16
2022-09-23T13:17:37.242Z,100289.86
2022-09-23T13:21:42.645Z,100285.04
2022-09-23T13:25:45.159Z,100278.52
2022-09-23T13:29:58.915Z,100274.46
2022-09-23T13:34:05.444Z,100260.35
2022-09-23T13:38:18.058Z,100259.91
2022-09-23T13:42:26.679Z,100258.54
2022-09-23T13:46:36.183Z,100260.06
2022-09-23T13:50:42.686Z,100263.98
2022-09-23T13:54:49.676Z,100265.17
2022-09-23T13:58:56.172Z,100262.77
2022-09-23T14:02:58.336Z,100257.06
2022-09-23T14:07:01.713Z,100253.54
2022-09-23T14:11:05.811Z,100250.96
2022-09-23T14:15:14.480Z,100253.00
2022-09-23T14:19:18.638Z,100251.60
2022-09-23T14:23:20.683Z,100250.41
2022-09-23T14:27:31.672Z,100252.38
2022-09-23T14:31:34.278Z,100250.31
2022-09-23T14:35:44.265Z,100246.01
2022-09-23T14:39:53.450Z,100243.73
2022-09-23T14:44:00.633Z,100241.52
2022-09-23T14:48:10.566Z,100240.54
2022-09-23T14:52:13.176Z,100236.27
2022-09-23T14:56:20.969Z,100228.24
2022-09-23T15:00:24.109Z,100231.59
2022-09-23T15:04:27.187Z,100228.80
2022-09-23T15:08:32.019Z,100225.78
2022-09-23T15:12:35.880Z,100225.14
2022-09-23T15:16:39.682Z,100228.27
2022-09-23T15:20:52.079Z,100229.13
2022-09-23T15:25:20.969Z,100228.30
2022-09-23T15:29:26.061Z,100226.17
2022-09-23T15:33:29.419Z,100229.29
2022-09-23T15:37:36.185Z,100221.48
2022-09-23T15:41:38.579Z,100217.08
2022-09-23T15:45:44.741Z,100217.54
2022-09-23T15:49:47.084Z,100225.34
2022-09-23T15:53:55.853Z,100224.70
2022-09-23T15:57:58.164Z,100222.11
2022-09-23T16:02:05.339Z,100226.48
2022-09-23T16:06:13.045Z,100227.58
2022-09-23T16:10:15.336Z,100229.79
2022-09-23T16:14:18.588Z,100233.88
2022-09-23T16:18:20.638Z,100232.91
2022-09-23T16:22:22.889Z,100234.30
2022-09-23T16:26:30.144Z,100233.23
2022-09-23T16:30:33.864Z,100236.31
2022-09-23T16:34:35.956Z,100241.56
2022-09-23T16:38:38.291Z,100246.02
2022-09-23T16:42:40.443Z,100244.09
2022-09-23T16:46:43.163Z,100244.37
2022-09-23T16:50:46.154Z,100242.86
2022-09-23T16:54:48.779Z,100239.58
2022-09-23T16:58:51.845Z,100237.74
2022-09-23T17:03:12.790Z,100232.05
2022-09-23T17:07:15.293Z,100233.41
2022-09-23T17:11:18.001Z,100233.73
2022-09-23T17:15:22.166Z,100236.20
2022-09-23T17:19:26.030Z,100232.09
2022-09-23T17:23:31.278Z,100232.99
2022-09-23T17:27:34.467Z,100227.13
2022-09-23T17:31:36.964Z,100234.50
2022-09-23T17:35:40.417Z,100237.13
2022-09-23T17:39:43.130Z,100237.99
2022-09-23T17:43:46.563Z,100241.95
2022-09-23T17:47:54.455Z,100238.89
2022-09-23T17:51:57.384Z,100243.96
2022-09-23T17:56:01.469Z,100250.52
2022-09-23T18:00:03.907Z,100245.66
2022-09-23T18:04:13.745Z,100244.97
2022-09-23T18:08:15.822Z,100243.20
2022-09-23T18:12:18.028Z,100241.59
2022-09-23T18:16:23.151Z,100241.66
2022-09-23T18:20:25.185Z,100249.27
2022-09-23T18:24:32.180Z,100249.89
2022-09-23T18:28:35.269Z,100251.55
2022-09-23T18:32:37.371Z,100250.08
2022-09-23T18:36:40.064Z,100250.61
2022-09-23T18:40:55.649Z,100243.66
2022-09-23T18:44:58.132Z,100242.95
2022-09-23T18:49:19.314Z,100244.19
2022-09-23T18:53:21.326Z,100241.70
2022-09-23T18:57:23.304Z,100241.92
2022-09-23T19:01:25.603Z,100242.71
2022-09-23T19:05:28.268Z,100240.21
2022-09-23T19:09:30.532Z,100243.64
2022-09-23T19:13:35.311Z,100246.02
2022-09-23T19:17:37.365Z,100245.41
2022-09-23T19:21:41.134Z,100248.94
2022-09-23T19:25:43.248Z,100249.61
2022-09-23T19:29:47.070Z,100251.92
2022-09-23T19:34:04.049Z,100251.38
2022-09-23T19:38:06.891Z,100254.67
2022-09-23T19:42:09.103Z,100251.63
2022-09-23T19:46:11.239Z,100250.46
2022-09-23T19:50:14.271Z,100248.95
2022-09-23T19:54:21.133Z,100247.14
2022-09-23T19:58:23.179Z,100247.45
2022-09-23T20:02:25.256Z,100247.40
2022-09-23T20:06:33.459Z,100246.68
2022-09-23T20:10:39.163Z,100251.55
2022-09-23T20:14:41.255Z,100252.59
2022-09-23T20:18:45.528Z,100253.13
2022-09-23T20:22:50.616Z,100251.05
2022-09-23T20:27:08.362Z,100245.92
2022-09-23T20:31:14.215Z,100254.31
2022-09-23T20:35:16.311Z,100251.46
2022-09-23T20:39:18.291Z,100244.65
2022-09-23T20:43:20.359Z,100243.82
2022-09-23T20:47:23.931Z,100237.37
2022-09-23T20:51:25.957Z,100241.67
2022-09-23T20:55:28.757Z,100239.46
2022-09-23T20:59:30.755Z,100238.84
2022-09-23T21:03:33.377Z,100238.04
2022-09-23T21:07:35.446Z,100235.52
2022-09-23T21:11:37.713Z,100234.70
2022-09-23T21:15:39.707Z,100231.96
2022-09-23T21:19:41.682Z,100233.40
2022-09-23T21:23:43.758Z,100230.99
2022-09-23T21:27:51.774Z,100232.34
2022-09-23T21:31:53.866Z,100233.74
2022-09-23T21:35:58.578Z,100233.11
2022-09-23T21:40:19.507Z,100235.14
2022-09-23T21:44:21.832Z,100238.06
2022-09-23T21:48:24.862Z,100236.64
2022-09-23T21:52:27.286Z,100235.68
2022-09-23T21:56:34.787Z,100235.36
2022-09-23T22:00:38.709Z,100233.55
2022-09-23T22:04:40.800Z,100231.02
2022-09-23T22:08:43.078Z,100228.93
2022-09-23T22:12:49.093Z,100231.81
2022-09-23T22:16:56.975Z,100234.05
2022-09-23T22:20:59.108Z,100236.86
2022-09-23T22:25:01.125Z,100239.29
2022-09-23T22:29:22.888Z,100234.81
2022-09-23T22:33:24.980Z,100238.05
2022-09-23T22:37:29.944Z,100231.90
2022-09-23T22:41:32.871Z,100228.69
2022-09-23T22:45:37.150Z,100229.23
2022-09-23T22:49:39.559Z,100226.54
2022-09-23T22:53:41.577Z,100224.45
2022-09-23T22:57:43.589Z,100222.55
2022-09-23T23:01:45.675Z,100217.59
2022-09-23T23:05:47.741Z,100211.25
2022-09-23T23:09:50.772Z,100207.16
2022-09-23T23:13:53.751Z,100208.90
2022-09-23T23:17:56.977Z,100203.25
2022-09-23T23:21:58.993Z,100200.31
2022-09-23T23:26:09.668Z,100205.56
2022-09-23T23:30:12.582Z,100199.23
2022-09-23T23:34:17.352Z,100201.48
2022-09-23T23:38:20.031Z,100198.79
2022-09-23T23:42:22.154Z,100194.59
2022-09-23T23:46:27.895Z,100197.72
2022-09-23T23:50:29.929Z,100193.54
2022-09-23T23:54:32.659Z,100187.68
2022-09-23T23:58:35.398Z,100186.05
